Terminal Aerodrome Forecast
Issued by NWS Sterling, VA

Current Version | Previous Version | Graphics & Text | Print | Product List | Glossary On
Versions: 1 2 3 4 5 6 7 8 9 10 11 12 13 14 15 16 17 18 19 20 21 22 23 24 25 26 27 28 29 30
000
FTUS41 KLWX 181350 AAA
TAFIAD
TAF AMD
KIAD 181350Z 1814/1918 VRB04KT P6SM BKN010 BKN090
     FM181500 20006KT P6SM SCT015 BKN090
     FM181600 20008G16KT P6SM SCT090
     FM182000 24008G16KT P6SM -SHRA VCTS OVC050CB
     FM190000 VRB04KT P6SM BKN050
     FM190600 VRB03KT 5SM BR SCT200
     FM191200 32008KT P6SM SCT200=

USA.gov is the U.S. government's official web portal to all federal, state and local government web resources and services.